Time,TemperatureF,DewpointF,PressureIn,WindDirection,WindDirectionDegrees,WindSpeedMPH,WindSpeedGustMPH,Humidity,HourlyPrecipIn,Conditions,Clouds,dailyrainin,SoftwareType,DateUTC
2013-03-30 00:13:00,60.9,52.0,30.23,ESE,117,0.0,-999.0,73,-99.99,,,0.00,weatherlink.com 1.10,2013-03-30 04:13:00,
2013-03-30 00:28:00,60.7,53.0,30.23,ESE,117,0.0,-999.0,76,-99.99,,,0.00,weatherlink.com 1.10,2013-03-30 04:28:00,
2013-03-30 00:43:00,60.6,53.0,30.23,ESE,117,0.0,-999.0,75,-99.99,,,0.00,weatherlink.com 1.10,2013-03-30 04:43:00,
2013-03-30 00:58:00,60.0,53.0,30.23,ESE,117,0.0,-999.0,77,-99.99,,,0.00,weatherlink.com 1.10,2013-03-30 04:58:00,
2013-03-30 01:13:00,59.7,53.0,30.23,ESE,117,0.0,-999.0,79,-99.99,,,0.00,weatherlink.com 1.10,2013-03-30 05:13:00,
2013-03-30 01:28:00,60.3,53.0,30.22,ESE,117,0.0,-999.0,77,-99.99,,,0.00,weatherlink.com 1.10,2013-03-30 05:28:00,
2013-03-30 01:43:00,60.6,53.0,30.22,SE,146,0.0,-999.0,76,-99.99,,,0.00,weatherlink.com 1.10,2013-03-30 05:43:00,
2013-03-30 01:58:00,60.6,53.0,30.21,SE,141,0.0,-999.0,76,-99.99,,,0.00,weatherlink.com 1.10,2013-03-30 05:58:00,
2013-03-30 02:13:00,60.5,53.0,30.21,SE,140,0.0,-999.0,77,-99.99,,,0.00,weatherlink.com 1.10,2013-03-30 06:13:00,
2013-03-30 02:28:00,60.8,53.0,30.21,ESE,111,0.0,-999.0,76,-99.99,,,0.00,weatherlink.com 1.10,2013-03-30 06:28:00,
2013-03-30 02:44:00,59.9,53.0,30.20,ESE,111,0.0,-999.0,77,-99.99,,,0.00,weatherlink.com 1.10,2013-03-30 06:44:00,
2013-03-30 02:59:00,59.1,53.0,30.21,ESE,111,0.0,-999.0,79,-99.99,,,0.00,weatherlink.com 1.10,2013-03-30 06:59:00,
2013-03-30 03:14:00,58.5,53.0,30.20,ESE,117,0.0,-999.0,83,-99.99,,,0.00,weatherlink.com 1.10,2013-03-30 07:14:00,
2013-03-30 03:29:00,58.0,54.0,30.21,ESE,117,0.0,-999.0,85,-99.99,,,0.00,weatherlink.com 1.10,2013-03-30 07:29:00,
2013-03-30 03:44:00,57.6,54.0,30.21,ESE,117,0.0,-999.0,87,-99.99,,,0.00,weatherlink.com 1.10,2013-03-30 07:44:00,
2013-03-30 03:59:00,57.2,53.0,30.21,ESE,117,0.0,-999.0,87,-99.99,,,0.00,weatherlink.com 1.10,2013-03-30 07:59:00,
2013-03-30 04:14:00,57.0,54.0,30.20,ESE,117,0.0,-999.0,88,-99.99,,,0.00,weatherlink.com 1.10,2013-03-30 08:14:00,
2013-03-30 04:29:00,56.6,54.0,30.20,ESE,117,0.0,-999.0,90,-99.99,,,0.00,weatherlink.com 1.10,2013-03-30 08:29:00,
2013-03-30 04:44:00,56.5,54.0,30.20,ESE,117,0.0,-999.0,90,-99.99,,,0.00,weatherlink.com 1.10,2013-03-30 08:44:00,
2013-03-30 04:59:00,56.7,54.0,30.20,ESE,115,0.0,-999.0,91,-99.99,,,0.00,weatherlink.com 1.10,2013-03-30 08:59:00,
2013-03-30 05:14:00,57.0,55.0,30.20,ESE,115,0.0,-999.0,92,-99.99,,,0.00,weatherlink.com 1.10,2013-03-30 09:14:00,
2013-03-30 05:29:00,56.8,55.0,30.20,ESE,117,0.0,-999.0,92,-99.99,,,0.00,weatherlink.com 1.10,2013-03-30 09:29:00,
2013-03-30 05:44:00,56.9,55.0,30.20,ESE,115,0.0,-999.0,92,-99.99,,,0.00,weatherlink.com 1.10,2013-03-30 09:44:00,
2013-03-30 05:59:00,56.4,54.0,30.20,ESE,115,0.0,-999.0,91,-99.99,,,0.00,weatherlink.com 1.10,2013-03-30 09:59:00,
2013-03-30 06:14:00,56.4,54.0,30.20,ESE,117,0.0,-999.0,92,-99.99,,,0.00,weatherlink.com 1.10,2013-03-30 10:14:00,
2013-03-30 06:29:00,55.8,54.0,30.21,ESE,117,0.0,-999.0,92,-99.99,,,0.00,weatherlink.com 1.10,2013-03-30 10:29:00,
2013-03-30 06:44:00,55.7,54.0,30.21,ESE,117,0.0,-999.0,93,-99.99,,,0.00,weatherlink.com 1.10,2013-03-30 10:44:00,
2013-03-30 06:59:00,56.2,54.0,30.21,ESE,117,0.0,-999.0,93,-99.99,,,0.00,weatherlink.com 1.10,2013-03-30 10:59:00,
2013-03-30 07:14:00,56.3,54.0,30.21,ESE,117,0.0,-999.0,93,-99.99,,,0.00,weatherlink.com 1.10,2013-03-30 11:14:00,
2013-03-30 07:29:00,56.2,54.0,30.22,ESE,117,0.0,-999.0,93,-99.99,,,0.00,weatherlink.com 1.10,2013-03-30 11:29:00,
2013-03-30 07:44:00,56.1,54.0,30.23,ESE,117,0.0,-999.0,92,-99.99,,,0.00,weatherlink.com 1.10,2013-03-30 11:44:00,
2013-03-30 07:59:00,57.0,55.0,30.23,ESE,117,0.0,-999.0,92,-99.99,,,0.00,weatherlink.com 1.10,2013-03-30 11:59:00,
2013-03-30 08:14:00,58.5,56.0,30.24,ESE,117,0.0,-999.0,90,-99.99,,,0.00,weatherlink.com 1.10,2013-03-30 12:14:00,
2013-03-30 08:29:00,60.4,57.0,30.25,ESE,117,0.0,-999.0,89,-99.99,,,0.00,weatherlink.com 1.10,2013-03-30 12:29:00,
2013-03-30 08:44:00,64.7,57.0,30.25,ENE,61,0.0,-999.0,77,-99.99,,,0.00,weatherlink.com 1.10,2013-03-30 12:44:00,
2013-03-30 08:59:00,67.0,57.0,30.25,ENE,61,0.0,-999.0,70,-99.99,,,0.00,weatherlink.com 1.10,2013-03-30 12:59:00,
2013-03-30 09:14:00,68.7,55.0,30.25,ENE,74,1.0,-999.0,61,-99.99,,,0.00,weatherlink.com 1.10,2013-03-30 13:14:00,
2013-03-30 09:29:00,69.2,54.0,30.25,ESE,113,0.0,-999.0,59,-99.99,,,0.00,weatherlink.com 1.10,2013-03-30 13:29:00,
2013-03-30 09:44:00,69.8,54.0,30.25,ENE,76,4.0,-999.0,58,-99.99,,,0.00,weatherlink.com 1.10,2013-03-30 13:44:00,
2013-03-30 10:00:00,70.2,54.0,30.25,East,96,2.0,-999.0,56,-99.99,,,0.00,weatherlink.com 1.10,2013-03-30 14:00:00,
2013-03-30 10:15:00,70.9,53.0,30.25,SSE,156,2.0,-999.0,54,-99.99,,,0.00,weatherlink.com 1.10,2013-03-30 14:15:00,
2013-03-30 10:29:00,71.3,52.0,30.25,ESE,105,2.0,-999.0,51,-99.99,,,0.00,weatherlink.com 1.10,2013-03-30 14:29:00,
2013-03-30 10:44:00,71.5,53.0,30.25,East,95,2.0,-999.0,52,-99.99,,,0.00,weatherlink.com 1.10,2013-03-30 14:44:00,
2013-03-30 10:59:00,71.7,52.0,30.26,SSE,147,2.0,-999.0,51,-99.99,,,0.00,weatherlink.com 1.10,2013-03-30 14:59:00,
2013-03-30 11:14:00,72.2,51.0,30.25,South,179,1.0,-999.0,48,-99.99,,,0.00,weatherlink.com 1.10,2013-03-30 15:14:00,
2013-03-30 11:30:00,73.0,50.0,30.26,ESE,110,5.0,-999.0,45,-99.99,,,0.00,weatherlink.com 1.10,2013-03-30 15:30:00,
2013-03-30 11:45:00,73.1,52.0,30.26,East,80,0.0,-999.0,47,-99.99,,,0.00,weatherlink.com 1.10,2013-03-30 15:45:00,
2013-03-30 11:59:00,73.6,51.0,30.25,ENE,58,5.0,-999.0,46,-99.99,,,0.00,weatherlink.com 1.10,2013-03-30 15:59:00,
2013-03-30 12:14:00,73.2,50.0,30.25,ENE,75,3.0,-999.0,44,-99.99,,,0.00,weatherlink.com 1.10,2013-03-30 16:14:00,
2013-03-30 12:29:00,73.7,51.0,30.25,East,94,4.0,-999.0,45,-99.99,,,0.00,weatherlink.com 1.10,2013-03-30 16:29:00,
2013-03-30 12:45:00,74.6,51.0,30.24,SSE,152,2.0,-999.0,43,-99.99,,,0.00,weatherlink.com 1.10,2013-03-30 16:45:00,
2013-03-30 12:59:00,74.0,47.0,30.24,SSW,192,4.0,-999.0,39,-99.99,,,0.00,weatherlink.com 1.10,2013-03-30 16:59:00,
2013-03-30 13:14:00,74.9,50.0,30.23,South,172,2.0,-999.0,42,-99.99,,,0.00,weatherlink.com 1.10,2013-03-30 17:14:00,
2013-03-30 13:29:00,74.3,50.0,30.23,ENE,78,2.0,-999.0,43,-99.99,,,0.00,weatherlink.com 1.10,2013-03-30 17:29:00,
2013-03-30 13:45:00,75.0,52.0,30.22,ENE,64,5.0,-999.0,45,-99.99,,,0.00,weatherlink.com 1.10,2013-03-30 17:45:00,
2013-03-30 13:59:00,75.7,53.0,30.21,SE,135,1.0,-999.0,45,-99.99,,,0.00,weatherlink.com 1.10,2013-03-30 17:59:00,
2013-03-30 14:14:00,75.8,54.0,30.20,ESE,106,5.0,-999.0,47,-99.99,,,0.00,weatherlink.com 1.10,2013-03-30 18:14:00,
2013-03-30 14:29:00,74.9,54.0,30.20,SSE,161,2.0,-999.0,48,-99.99,,,0.00,weatherlink.com 1.10,2013-03-30 18:29:00,
2013-03-30 14:45:00,75.2,54.0,30.19,SSE,166,1.0,-999.0,47,-99.99,,,0.00,weatherlink.com 1.10,2013-03-30 18:45:00,
2013-03-30 15:00:00,75.4,54.0,30.18,SE,130,2.0,-999.0,47,-99.99,,,0.00,weatherlink.com 1.10,2013-03-30 19:00:00,
2013-03-30 15:14:00,75.4,53.0,30.18,NE,36,0.0,-999.0,46,-99.99,,,0.00,weatherlink.com 1.10,2013-03-30 19:14:00,
2013-03-30 15:29:00,75.3,52.0,30.17,ESE,105,0.0,-999.0,44,-99.99,,,0.00,weatherlink.com 1.10,2013-03-30 19:29:00,
2013-03-30 15:44:00,75.9,54.0,30.16,ENE,58,1.0,-999.0,46,-99.99,,,0.00,weatherlink.com 1.10,2013-03-30 19:44:00,
2013-03-30 15:59:00,75.8,52.0,30.17,NE,49,2.0,-999.0,43,-99.99,,,0.00,weatherlink.com 1.10,2013-03-30 19:59:00,
2013-03-30 16:15:00,74.9,50.0,30.16,East,95,1.0,-999.0,42,-99.99,,,0.00,weatherlink.com 1.10,2013-03-30 20:15:00,
2013-03-30 16:29:00,74.8,50.0,30.16,SE,126,2.0,-999.0,42,-99.99,,,0.00,weatherlink.com 1.10,2013-03-30 20:29:00,
2013-03-30 16:44:00,74.6,51.0,30.16,SE,146,2.0,-999.0,44,-99.99,,,0.00,weatherlink.com 1.10,2013-03-30 20:44:00,
2013-03-30 16:59:00,74.7,51.0,30.16,East,86,4.0,-999.0,43,-99.99,,,0.00,weatherlink.com 1.10,2013-03-30 20:59:00,
2013-03-30 17:15:00,74.0,52.0,30.16,SE,126,2.0,-999.0,46,-99.99,,,0.00,weatherlink.com 1.10,2013-03-30 21:15:00,
2013-03-30 17:30:00,74.4,52.0,30.16,ESE,123,6.0,-999.0,45,-99.99,,,0.00,weatherlink.com 1.10,2013-03-30 21:30:00,
2013-03-30 17:45:00,73.9,52.0,30.16,SSE,156,1.0,-999.0,47,-99.99,,,0.00,weatherlink.com 1.10,2013-03-30 21:45:00,
2013-03-30 18:00:00,73.2,52.0,30.16,ENE,70,2.0,-999.0,48,-99.99,,,0.00,weatherlink.com 1.10,2013-03-30 22:00:00,
2013-03-30 18:14:00,72.9,53.0,30.16,SE,142,1.0,-999.0,49,-99.99,,,0.00,weatherlink.com 1.10,2013-03-30 22:14:00,
2013-03-30 18:30:00,72.5,53.0,30.16,SE,134,1.0,-999.0,50,-99.99,,,0.00,weatherlink.com 1.10,2013-03-30 22:30:00,
2013-03-30 18:44:00,71.6,52.0,30.16,SSE,155,1.0,-999.0,51,-99.99,,,0.00,weatherlink.com 1.10,2013-03-30 22:44:00,
2013-03-30 18:59:00,70.9,53.0,30.16,SE,144,2.0,-999.0,53,-99.99,,,0.00,weatherlink.com 1.10,2013-03-30 22:59:00,
2013-03-30 19:15:00,70.3,52.0,30.16,ESE,107,1.0,-999.0,53,-99.99,,,0.00,weatherlink.com 1.10,2013-03-30 23:15:00,
2013-03-30 19:29:00,69.6,53.0,30.16,SSE,149,1.0,-999.0,56,-99.99,,,0.00,weatherlink.com 1.10,2013-03-30 23:29:00,
2013-03-30 19:45:00,69.0,53.0,30.16,ESE,112,0.0,-999.0,57,-99.99,,,0.00,weatherlink.com 1.10,2013-03-30 23:45:00,
2013-03-30 20:00:00,68.4,53.0,30.16,SE,136,0.0,-999.0,58,-99.99,,,0.00,weatherlink.com 1.10,2013-03-31 00:00:00,
2013-03-30 20:15:00,67.9,53.0,30.16,SE,126,0.0,-999.0,60,-99.99,,,0.00,weatherlink.com 1.10,2013-03-31 00:15:00,
2013-03-30 20:30:00,67.3,54.0,30.17,East,95,1.0,-999.0,62,-99.99,,,0.00,weatherlink.com 1.10,2013-03-31 00:30:00,
2013-03-30 20:45:00,66.7,54.0,30.17,SSE,163,0.0,-999.0,64,-99.99,,,0.00,weatherlink.com 1.10,2013-03-31 00:45:00,
2013-03-30 21:00:00,66.5,54.0,30.18,SE,128,0.0,-999.0,65,-99.99,,,0.00,weatherlink.com 1.10,2013-03-31 01:00:00,
2013-03-30 21:14:00,66.3,55.0,30.18,ESE,104,0.0,-999.0,66,-99.99,,,0.00,weatherlink.com 1.10,2013-03-31 01:14:00,
2013-03-30 21:29:00,65.9,55.0,30.18,SE,130,0.0,-999.0,67,-99.99,,,0.00,weatherlink.com 1.10,2013-03-31 01:29:00,
2013-03-30 21:44:00,65.6,55.0,30.18,SE,132,0.0,-999.0,68,-99.99,,,0.00,weatherlink.com 1.10,2013-03-31 01:44:00,
2013-03-30 21:59:00,65.6,55.0,30.18,ESE,118,0.0,-999.0,69,-99.99,,,0.00,weatherlink.com 1.10,2013-03-31 01:59:00,
2013-03-30 22:15:00,65.4,55.0,30.19,SE,124,0.0,-999.0,70,-99.99,,,0.00,weatherlink.com 1.10,2013-03-31 02:15:00,
2013-03-30 22:30:00,65.2,56.0,30.19,East,98,0.0,-999.0,71,-99.99,,,0.00,weatherlink.com 1.10,2013-03-31 02:30:00,
2013-03-30 22:44:00,65.3,55.0,30.19,ESE,107,0.0,-999.0,70,-99.99,,,0.00,weatherlink.com 1.10,2013-03-31 02:44:00,
2013-03-30 23:00:00,65.3,56.0,30.19,ESE,123,1.0,-999.0,71,-99.99,,,0.00,weatherlink.com 1.10,2013-03-31 03:00:00,
2013-03-30 23:15:00,65.5,55.0,30.19,ESE,109,2.0,-999.0,70,-99.99,,,0.00,weatherlink.com 1.10,2013-03-31 03:15:00,
2013-03-30 23:30:00,65.9,55.0,30.19,ESE,111,1.0,-999.0,69,-99.99,,,0.00,weatherlink.com 1.10,2013-03-31 03:30:00,
2013-03-30 23:44:00,66.4,55.0,30.18,SSE,163,1.0,-999.0,68,-99.99,,,0.00,weatherlink.com 1.10,2013-03-31 03:44:00,